createdAt,value
2023-04-20T00:00:11.788Z,6.38
2023-04-20T00:02:42.609Z,6.41
2023-04-20T00:05:13.201Z,6.54
2023-04-20T00:07:43.806Z,6.50
2023-04-20T00:10:14.168Z,6.62
2023-04-20T00:12:44.921Z,6.66
2023-04-20T00:15:15.615Z,6.63
2023-04-20T00:17:46.228Z,6.63
2023-04-20T00:20:16.781Z,6.60
2023-04-20T00:22:47.518Z,6.63
2023-04-20T00:25:17.528Z,6.60
2023-04-20T00:27:47.750Z,6.52
2023-04-20T00:30:18.460Z,6.63
2023-04-20T00:32:49.253Z,6.70
2023-04-20T00:35:19.917Z,6.45
2023-04-20T00:37:50.341Z,6.51
2023-04-20T00:40:21.059Z,6.56
2023-04-20T00:42:51.818Z,6.68
2023-04-20T00:45:22.611Z,6.67
2023-04-20T00:47:53.252Z,6.67
2023-04-20T00:50:24.000Z,6.79
2023-04-20T00:52:54.379Z,6.66
2023-04-20T00:55:25.137Z,6.72
2023-04-20T00:57:55.803Z,6.59
2023-04-20T01:00:26.509Z,6.52
2023-04-20T01:02:57.289Z,6.73
2023-04-20T01:05:27.920Z,6.59
2023-04-20T01:07:58.624Z,6.70
2023-04-20T01:10:29.433Z,6.62
2023-04-20T01:13:00.067Z,6.72
2023-04-20T01:15:30.758Z,6.62
2023-04-20T01:18:01.524Z,6.63
2023-04-20T01:20:32.168Z,6.65
2023-04-20T01:23:02.530Z,6.50
2023-04-20T01:25:33.346Z,6.61
2023-04-20T01:28:03.667Z,6.65
2023-04-20T01:30:34.078Z,6.83
2023-04-20T01:33:04.812Z,6.92
2023-04-20T01:35:35.502Z,7.06
2023-04-20T01:38:06.187Z,7.01
2023-04-20T01:40:37.052Z,7.03
2023-04-20T01:43:07.581Z,7.12
2023-04-20T01:45:38.411Z,7.25
2023-04-20T01:48:09.010Z,7.33
2023-04-20T01:50:39.689Z,7.34
2023-04-20T01:53:10.041Z,7.41
2023-04-20T01:55:40.722Z,7.35
2023-04-20T01:58:11.423Z,7.29
2023-04-20T02:00:42.170Z,7.28
2023-04-20T02:03:12.710Z,7.36
2023-04-20T02:05:43.369Z,7.32
2023-04-20T02:08:13.891Z,7.42
2023-04-20T02:10:44.741Z,7.23
2023-04-20T02:13:14.984Z,7.32
2023-04-20T02:15:45.675Z,7.35
2023-04-20T02:18:16.369Z,7.28
2023-04-20T02:20:46.719Z,7.35
2023-04-20T02:23:17.374Z,7.18
2023-04-20T02:25:48.100Z,7.09
2023-04-20T02:28:18.756Z,7.03
2023-04-20T02:30:49.594Z,7.10
2023-04-20T02:33:20.124Z,7.19
2023-04-20T02:35:50.949Z,7.22
2023-04-20T02:38:21.242Z,7.32
2023-04-20T02:40:51.912Z,7.52
2023-04-20T02:43:22.638Z,7.65
2023-04-20T02:45:52.992Z,7.62
2023-04-20T02:48:23.786Z,7.76
2023-04-20T02:50:54.325Z,7.77
2023-04-20T02:53:25.039Z,7.70
2023-04-20T02:55:55.806Z,7.78
2023-04-20T02:58:26.368Z,7.84
2023-04-20T03:00:57.169Z,7.83
2023-04-20T03:03:27.617Z,7.95
2023-04-20T03:05:58.054Z,7.95
2023-04-20T03:08:28.727Z,7.95
2023-04-20T03:10:59.420Z,8.03
2023-04-20T03:13:30.146Z,8.16
2023-04-20T03:16:00.841Z,8.05
2023-04-20T03:18:31.504Z,8.07
2023-04-20T03:21:02.158Z,8.07
2023-04-20T03:23:32.550Z,8.11
2023-04-20T03:26:03.201Z,7.94
2023-04-20T03:28:33.901Z,7.95
2023-04-20T03:31:04.313Z,7.98
2023-04-20T03:33:35.018Z,8.02
2023-04-20T03:36:05.364Z,8.06
2023-04-20T03:38:36.054Z,7.87
2023-04-20T03:41:06.418Z,7.93
2023-04-20T03:43:37.122Z,7.84
2023-04-20T03:46:07.840Z,7.71
2023-04-20T03:48:38.581Z,7.77
2023-04-20T03:51:09.107Z,7.83
2023-04-20T03:53:39.848Z,7.82
2023-04-20T03:56:10.451Z,7.74
2023-04-20T03:58:41.149Z,7.50
2023-04-20T04:01:11.817Z,7.40
2023-04-20T04:03:42.673Z,7.24
2023-04-20T04:06:13.206Z,7.28
2023-04-20T04:08:43.893Z,7.28
2023-04-20T04:11:14.580Z,7.34
2023-04-20T04:13:45.277Z,7.33
2023-04-20T04:16:15.965Z,7.21
2023-04-20T04:18:46.767Z,7.21
2023-04-20T04:21:17.353Z,7.27
2023-04-20T04:23:48.053Z,7.13
2023-04-20T04:26:18.737Z,7.13
2023-04-20T04:28:49.489Z,7.08
2023-04-20T04:31:20.171Z,7.08
2023-04-20T04:33:50.652Z,7.03
2023-04-20T04:36:20.902Z,7.00
2023-04-20T04:38:51.612Z,6.86
2023-04-20T04:41:22.291Z,6.95
2023-04-20T04:43:52.993Z,6.95
2023-04-20T04:46:23.765Z,6.93
2023-04-20T04:48:54.122Z,6.97
2023-04-20T04:51:24.801Z,7.11
2023-04-20T04:53:55.509Z,7.11
2023-04-20T04:56:26.191Z,6.98
2023-04-20T04:58:56.894Z,6.91
2023-04-20T05:01:27.342Z,6.89
2023-04-20T05:03:58.199Z,6.85
2023-04-20T05:06:28.730Z,6.84
2023-04-20T05:08:59.431Z,6.84
2023-04-20T05:11:29.511Z,6.91
2023-04-20T05:14:00.221Z,6.79
2023-04-20T05:16:30.993Z,6.81
2023-04-20T05:19:01.628Z,6.83
2023-04-20T05:21:32.299Z,6.97
2023-04-20T05:24:03.065Z,7.01
2023-04-20T05:26:33.720Z,7.08
2023-04-20T05:29:04.433Z,6.71
2023-04-20T05:31:34.902Z,6.84
2023-04-20T05:34:05.248Z,6.78
2023-04-20T05:36:35.923Z,6.68
2023-04-20T05:39:06.643Z,6.51
2023-04-20T05:41:37.379Z,6.61
2023-04-20T05:44:08.085Z,6.43
2023-04-20T05:46:38.847Z,6.15
2023-04-20T05:49:08.981Z,6.38
2023-04-20T05:51:39.407Z,6.49
2023-04-20T05:54:09.779Z,6.36
2023-04-20T05:56:40.494Z,6.31
2023-04-20T05:59:10.953Z,6.17
2023-04-20T06:01:41.721Z,6.13
2023-04-20T06:04:12.703Z,5.99
2023-04-20T06:06:43.147Z,6.17
2023-04-20T06:09:13.894Z,6.14
2023-04-20T06:11:44.067Z,6.28
2023-04-20T06:14:14.853Z,6.20
2023-04-20T06:16:45.468Z,6.27
2023-04-20T06:19:16.388Z,6.09
2023-04-20T06:21:46.927Z,6.16
2023-04-20T06:24:17.041Z,6.22
2023-04-20T06:26:47.218Z,6.37
2023-04-20T06:29:17.722Z,6.40
2023-04-20T06:31:48.126Z,6.27
2023-04-20T06:34:18.731Z,6.40
2023-04-20T06:36:49.451Z,6.53
2023-04-20T06:39:20.338Z,6.42
2023-04-20T06:41:50.894Z,6.34
2023-04-20T06:44:21.010Z,6.47
2023-04-20T06:46:51.748Z,6.56
2023-04-20T06:49:22.468Z,6.64
2023-04-20T06:51:52.889Z,6.69
2023-04-20T06:54:23.600Z,6.70
2023-04-20T06:56:54.093Z,6.75
2023-04-20T06:59:24.758Z,6.83
2023-04-20T07:01:55.572Z,6.96
2023-04-20T07:04:25.910Z,6.83
2023-04-20T07:06:56.490Z,7.07
2023-04-20T07:09:27.187Z,7.15
2023-04-20T07:11:57.870Z,7.13
2023-04-20T07:14:28.289Z,7.19
2023-04-20T07:16:58.959Z,7.30
2023-04-20T07:19:29.664Z,7.32
2023-04-20T07:22:00.092Z,7.33
2023-04-20T07:24:30.400Z,7.45
2023-04-20T07:27:01.070Z,7.54
2023-04-20T07:29:33.452Z,7.62
2023-04-20T07:32:01.948Z,7.60
2023-04-20T07:34:32.172Z,7.72
2023-04-20T07:37:02.843Z,7.80
2023-04-20T07:39:33.233Z,7.88
2023-04-20T07:42:03.920Z,8.01
2023-04-20T07:44:34.291Z,8.15
2023-04-20T07:47:05.084Z,8.20
2023-04-20T07:49:35.607Z,8.31
2023-04-20T07:52:15.715Z,8.37
2023-04-20T07:54:36.950Z,8.39
2023-04-20T07:57:07.605Z,8.39
2023-04-20T07:59:38.238Z,8.25
2023-04-20T08:02:08.718Z,8.14
2023-04-20T08:04:39.695Z,8.11
2023-04-20T08:07:09.597Z,8.15
2023-04-20T08:09:40.302Z,8.22
2023-04-20T08:12:10.937Z,8.26
2023-04-20T08:14:41.578Z,8.34
2023-04-20T08:17:12.232Z,8.38
2023-04-20T08:19:44.648Z,8.41
2023-04-20T08:22:13.314Z,8.45
2023-04-20T08:24:43.914Z,8.53
2023-04-20T08:27:14.686Z,8.61
2023-04-20T08:29:45.218Z,8.74
2023-04-20T08:32:15.517Z,8.83
2023-04-20T08:34:45.874Z,8.80
2023-04-20T08:37:16.506Z,8.77
2023-04-20T08:39:46.851Z,8.94
2023-04-20T08:42:17.491Z,8.93
2023-04-20T08:44:47.768Z,9.08
2023-04-20T08:47:18.122Z,9.16
2023-04-20T08:49:48.738Z,9.20
2023-04-20T08:52:19.495Z,9.21
2023-04-20T08:54:56.709Z,9.13
2023-04-20T08:57:20.742Z,9.24
2023-04-20T08:59:51.463Z,9.08
2023-04-20T09:02:22.079Z,9.17
2023-04-20T09:04:52.720Z,8.92
2023-04-20T09:07:23.204Z,9.00
2023-04-20T09:09:53.785Z,9.05
2023-04-20T09:12:24.464Z,9.18
2023-04-20T09:14:54.630Z,9.29
2023-04-20T09:17:25.478Z,9.05
2023-04-20T09:19:56.046Z,9.03
2023-04-20T09:22:27.044Z,9.03
2023-04-20T09:24:57.638Z,9.10
2023-04-20T09:27:27.867Z,9.20
2023-04-20T09:29:58.477Z,9.34
2023-04-20T09:32:29.152Z,9.24
2023-04-20T09:34:59.449Z,9.40
2023-04-20T09:37:29.705Z,9.51
2023-04-20T09:40:00.371Z,9.68
2023-04-20T09:42:31.062Z,9.78
2023-04-20T09:45:01.605Z,9.87
2023-04-20T09:47:31.902Z,10.01
2023-04-20T09:50:13.897Z,10.03
2023-04-20T09:52:32.996Z,10.15
2023-04-20T09:55:03.562Z,10.15
2023-04-20T09:57:34.251Z,9.95
2023-04-20T10:00:04.755Z,10.19
2023-04-20T10:02:35.475Z,10.27
2023-04-20T10:05:05.938Z,10.22
2023-04-20T10:07:36.517Z,10.20
2023-04-20T10:10:07.079Z,10.23
2023-04-20T10:12:37.734Z,10.29
2023-04-20T10:15:08.251Z,10.23
2023-04-20T10:17:39.002Z,10.13
2023-04-20T10:20:09.162Z,10.26
2023-04-20T10:22:39.741Z,10.39
2023-04-20T10:25:10.026Z,10.50
2023-04-20T10:27:40.720Z,10.55
2023-04-20T10:30:11.401Z,10.54
2023-04-20T10:32:41.987Z,10.61
2023-04-20T10:35:12.320Z,10.62
2023-04-20T10:37:42.947Z,10.71
2023-04-20T10:40:13.152Z,10.90
2023-04-20T10:42:43.698Z,11.09
2023-04-20T10:45:13.901Z,11.13
2023-04-20T10:47:44.504Z,11.06
2023-04-20T10:50:15.081Z,11.30
2023-04-20T10:52:45.257Z,11.26
2023-04-20T10:55:15.502Z,11.37
2023-04-20T10:57:46.057Z,11.47
2023-04-20T11:00:16.622Z,11.66
2023-04-20T11:02:47.239Z,11.57
2023-04-20T11:05:17.770Z,11.55
2023-04-20T11:07:48.264Z,11.66
2023-04-20T11:10:19.553Z,11.69
2023-04-20T11:12:49.038Z,11.94
2023-04-20T11:15:19.850Z,11.87
2023-04-20T11:17:50.552Z,12.03
2023-04-20T11:20:20.981Z,12.07
2023-04-20T11:22:53.090Z,12.11
2023-04-20T11:25:21.767Z,12.16
2023-04-20T11:27:52.310Z,12.15
2023-04-20T11:30:22.922Z,12.22
2023-04-20T11:32:53.443Z,12.32
2023-04-20T11:35:23.507Z,12.34
2023-04-20T11:37:53.772Z,12.31
2023-04-20T11:40:24.176Z,12.07
2023-04-20T11:42:54.475Z,12.17
2023-04-20T11:45:24.986Z,12.18
2023-04-20T11:47:55.516Z,12.28
2023-04-20T11:50:25.979Z,12.48
2023-04-20T11:52:56.480Z,12.56
2023-04-20T11:55:27.275Z,12.61
2023-04-20T11:57:57.517Z,12.54
2023-04-20T12:00:27.995Z,12.65
2023-04-20T12:02:58.646Z,12.59
2023-04-20T12:05:29.128Z,12.55
2023-04-20T12:07:59.915Z,12.50
2023-04-20T12:10:30.414Z,12.44
2023-04-20T12:13:00.811Z,12.26
2023-04-20T12:15:30.925Z,12.29
2023-04-20T12:18:01.779Z,12.33
2023-04-20T12:20:32.300Z,12.12
2023-04-20T12:23:02.712Z,11.98
2023-04-20T12:25:33.262Z,11.98
2023-04-20T12:28:04.023Z,11.88
2023-04-20T12:30:34.533Z,11.94
2023-04-20T12:33:05.257Z,11.83
2023-04-20T12:35:35.649Z,11.81
2023-04-20T12:38:05.790Z,12.03
2023-04-20T12:40:36.296Z,12.24
2023-04-20T12:43:07.107Z,12.18
2023-04-20T12:45:37.628Z,12.06
2023-04-20T12:48:07.986Z,12.02
2023-04-20T12:50:38.647Z,12.13
2023-04-20T12:53:09.138Z,11.97
2023-04-20T12:55:39.525Z,11.78
2023-04-20T12:58:09.676Z,11.66
2023-04-20T13:00:40.231Z,11.82
2023-04-20T13:03:10.704Z,11.81
2023-04-20T13:05:40.964Z,11.70
2023-04-20T13:08:11.506Z,11.86
2023-04-20T13:10:42.032Z,11.98
2023-04-20T13:13:12.305Z,12.02
2023-04-20T13:15:42.554Z,12.07
2023-04-20T13:18:12.825Z,12.17
2023-04-20T13:20:43.260Z,12.20
2023-04-20T13:23:15.358Z,12.27
2023-04-20T13:25:44.027Z,12.33
2023-04-20T13:28:14.769Z,12.48
2023-04-20T13:30:44.886Z,12.51
2023-04-20T13:33:14.974Z,12.57
2023-04-20T13:35:45.462Z,12.51
2023-04-20T13:38:16.054Z,12.63
2023-04-20T13:40:46.471Z,12.70
2023-04-20T13:43:17.067Z,12.79
2023-04-20T13:45:47.064Z,13.03
2023-04-20T13:48:17.263Z,13.21
2023-04-20T13:50:47.978Z,13.37
2023-04-20T13:53:18.577Z,13.49
2023-04-20T13:55:49.148Z,13.56
2023-04-20T13:58:19.529Z,13.35
2023-04-20T14:00:50.181Z,13.29
2023-04-20T14:03:20.497Z,13.32
2023-04-20T14:05:51.806Z,13.42
2023-04-20T14:08:20.842Z,13.43
2023-04-20T14:10:51.077Z,13.38
2023-04-20T14:13:21.532Z,13.49
2023-04-20T14:15:52.057Z,13.47
2023-04-20T14:18:22.620Z,13.53
2023-04-20T14:20:52.986Z,13.68
2023-04-20T14:23:23.528Z,13.77
2023-04-20T14:25:53.971Z,13.87
2023-04-20T14:28:24.420Z,13.89
2023-04-20T14:30:54.903Z,13.83
2023-04-20T14:33:25.455Z,13.75
2023-04-20T14:35:55.849Z,13.84
2023-04-20T14:38:26.029Z,13.81
2023-04-20T14:40:56.498Z,13.89
2023-04-20T14:43:26.994Z,14.06
2023-04-20T14:45:57.169Z,14.15
2023-04-20T14:48:27.601Z,14.03
2023-04-20T14:50:58.066Z,13.86
2023-04-20T14:53:28.530Z,13.61
2023-04-20T14:55:59.024Z,13.27
2023-04-20T14:58:29.517Z,13.09
2023-04-20T15:01:00.028Z,13.14
2023-04-20T15:03:30.593Z,13.08
2023-04-20T15:06:00.838Z,12.93
2023-04-20T15:08:31.280Z,13.02
2023-04-20T15:11:01.523Z,13.12
2023-04-20T15:13:32.478Z,13.18
2023-04-20T15:16:02.412Z,13.31
2023-04-20T15:18:32.577Z,13.35
2023-04-20T15:21:03.072Z,13.39
2023-04-20T15:23:33.600Z,13.47
2023-04-20T15:26:03.921Z,13.37
2023-04-20T15:28:34.308Z,13.58
2023-04-20T15:31:05.074Z,13.64
2023-04-20T15:33:35.566Z,13.80
2023-04-20T15:36:06.132Z,13.98
2023-04-20T15:38:36.824Z,14.11
2023-04-20T15:41:07.213Z,14.14
2023-04-20T15:43:37.690Z,13.77
2023-04-20T15:46:08.211Z,14.07
2023-04-20T15:48:38.762Z,14.17
2023-04-20T15:51:09.157Z,14.20
2023-04-20T15:53:39.647Z,14.19
2023-04-20T15:56:10.149Z,14.28
2023-04-20T15:58:40.593Z,14.27
2023-04-20T16:01:11.138Z,14.33
2023-04-20T16:03:43.197Z,14.26
2023-04-20T16:06:11.998Z,14.15
2023-04-20T16:08:42.453Z,14.00
2023-04-20T16:11:13.191Z,14.04
2023-04-20T16:13:43.673Z,13.96
2023-04-20T16:16:14.337Z,13.95
2023-04-20T16:18:44.657Z,13.97
2023-04-20T16:21:14.953Z,13.92
2023-04-20T16:23:45.580Z,13.76
2023-04-20T16:26:15.876Z,13.54
2023-04-20T16:28:46.602Z,13.25
2023-04-20T16:31:17.086Z,12.84
2023-04-20T16:33:47.577Z,12.87
2023-04-20T16:36:18.073Z,12.95
2023-04-20T16:38:48.889Z,12.80
2023-04-20T16:41:19.401Z,12.90
2023-04-20T16:43:50.222Z,12.92
2023-04-20T16:46:20.910Z,12.88
2023-04-20T16:48:51.058Z,12.88
2023-04-20T16:51:21.495Z,12.86
2023-04-20T16:53:51.668Z,12.89
2023-04-20T16:56:22.563Z,12.83
2023-04-20T16:58:52.794Z,12.86
2023-04-20T17:01:23.031Z,12.66
2023-04-20T17:03:53.989Z,12.69
2023-04-20T17:06:23.925Z,12.59
2023-04-20T17:08:54.382Z,12.45
2023-04-20T17:11:24.606Z,12.30
2023-04-20T17:13:55.037Z,12.25
2023-04-20T17:16:25.441Z,12.26
2023-04-20T17:18:55.653Z,12.08
2023-04-20T17:21:26.133Z,11.92
2023-04-20T17:23:56.535Z,11.91
2023-04-20T17:26:26.642Z,11.83
2023-04-20T17:28:57.391Z,11.73
2023-04-20T17:31:28.224Z,11.64
2023-04-20T17:34:01.544Z,11.75
2023-04-20T17:36:29.741Z,11.56
2023-04-20T17:38:59.926Z,11.60
2023-04-20T17:41:30.143Z,11.44
2023-04-20T17:44:00.608Z,11.59
2023-04-20T17:46:31.178Z,11.50
2023-04-20T17:49:01.436Z,11.63
2023-04-20T17:51:31.513Z,11.62
2023-04-20T17:54:01.609Z,11.49
2023-04-20T17:56:32.088Z,11.43
2023-04-20T17:59:02.771Z,11.32
2023-04-20T18:01:33.406Z,11.22
2023-04-20T18:04:04.026Z,11.17
2023-04-20T18:06:34.433Z,11.18
2023-04-20T18:09:05.029Z,11.08
2023-04-20T18:11:35.655Z,11.07
2023-04-20T18:14:06.317Z,10.91
2023-04-20T18:16:37.237Z,11.03
2023-04-20T18:19:07.826Z,11.05
2023-04-20T18:21:38.369Z,11.00
2023-04-20T18:24:08.933Z,11.03
2023-04-20T18:26:39.170Z,11.01
2023-04-20T18:29:09.738Z,10.96
2023-04-20T18:31:40.096Z,10.94
2023-04-20T18:34:10.226Z,10.87
2023-04-20T18:36:40.382Z,10.86
2023-04-20T18:39:10.842Z,10.81
2023-04-20T18:41:41.408Z,10.74
2023-04-20T18:44:11.997Z,10.86
2023-04-20T18:46:42.612Z,10.85
2023-04-20T18:49:13.402Z,10.87
2023-04-20T18:51:43.588Z,10.96
2023-04-20T18:54:13.918Z,11.00
2023-04-20T18:56:44.490Z,10.97
2023-04-20T18:59:14.692Z,11.00
2023-04-20T19:01:45.376Z,10.90
2023-04-20T19:04:15.887Z,10.88
2023-04-20T19:06:45.836Z,10.84
2023-04-20T19:09:16.398Z,10.81
2023-04-20T19:11:47.252Z,10.80
2023-04-20T19:14:17.757Z,10.69
2023-04-20T19:16:48.151Z,10.67
2023-04-20T19:19:18.324Z,10.58
2023-04-20T19:21:48.535Z,10.55
2023-04-20T19:24:19.350Z,10.51
2023-04-20T19:26:49.398Z,10.52
2023-04-20T19:29:19.792Z,10.50
2023-04-20T19:31:49.983Z,10.44
2023-04-20T19:34:20.316Z,10.38
2023-04-20T19:36:50.839Z,10.43
2023-04-20T19:39:21.034Z,10.44
2023-04-20T19:41:51.352Z,10.41
2023-04-20T19:44:21.550Z,10.33
2023-04-20T19:46:52.150Z,10.34
2023-04-20T19:49:22.752Z,10.44
2023-04-20T19:51:53.379Z,10.44
2023-04-20T19:54:24.016Z,10.49
2023-04-20T19:56:54.100Z,10.45
2023-04-20T19:59:24.894Z,10.52
2023-04-20T20:01:55.635Z,10.39
2023-04-20T20:04:25.844Z,10.43
2023-04-20T20:06:56.142Z,10.48
2023-04-20T20:09:26.321Z,10.53
2023-04-20T20:11:56.374Z,10.55
2023-04-20T20:14:27.053Z,10.51
2023-04-20T20:16:57.525Z,10.51
2023-04-20T20:19:27.751Z,10.53
2023-04-20T20:21:57.990Z,10.57
2023-04-20T20:24:28.258Z,10.61
2023-04-20T20:26:59.247Z,10.65
2023-04-20T20:29:29.357Z,10.58
2023-04-20T20:32:00.023Z,10.47
2023-04-20T20:34:30.706Z,10.51
2023-04-20T20:37:00.741Z,10.47
2023-04-20T20:39:31.086Z,10.54
2023-04-20T20:42:01.804Z,10.51
2023-04-20T20:44:32.549Z,10.56
2023-04-20T20:47:02.714Z,10.67
2023-04-20T20:49:32.667Z,10.74
2023-04-20T20:52:02.816Z,10.80
2023-04-20T20:54:33.221Z,10.85
2023-04-20T20:57:03.455Z,10.88
2023-04-20T20:59:33.658Z,10.85
2023-04-20T21:02:04.404Z,10.89
2023-04-20T21:04:34.518Z,10.95
2023-04-20T21:07:04.728Z,10.77
2023-04-20T21:09:35.096Z,10.82
2023-04-20T21:12:05.261Z,10.83
2023-04-20T21:14:36.024Z,10.85
2023-04-20T21:17:06.664Z,10.89
2023-04-20T21:19:36.676Z,10.89
2023-04-20T21:22:07.224Z,10.88
2023-04-20T21:24:37.383Z,10.93
2023-04-20T21:27:07.470Z,10.96
2023-04-20T21:29:37.610Z,10.97
2023-04-20T21:32:08.350Z,10.98
2023-04-20T21:34:39.047Z,11.05
2023-04-20T21:37:09.538Z,11.07
2023-04-20T21:39:39.590Z,11.11
2023-04-20T21:42:09.618Z,11.12
2023-04-20T21:44:39.761Z,11.12
2023-04-20T21:47:10.167Z,11.14
2023-04-20T21:49:40.559Z,11.09
2023-04-20T21:52:11.216Z,11.16
2023-04-20T21:54:42.044Z,11.15
2023-04-20T21:57:12.093Z,11.18
2023-04-20T21:59:42.720Z,11.21
2023-04-20T22:02:13.380Z,11.27
2023-04-20T22:04:43.446Z,11.29
2023-04-20T22:07:13.627Z,11.29
2023-04-20T22:09:44.175Z,11.24
2023-04-20T22:12:14.728Z,11.24
2023-04-20T22:14:44.983Z,11.23
2023-04-20T22:17:15.276Z,10.95
2023-04-20T22:19:45.507Z,10.72
2023-04-20T22:22:15.854Z,10.44
2023-04-20T22:24:46.238Z,10.17
2023-04-20T22:27:16.746Z,9.89
2023-04-20T22:29:47.307Z,9.73
2023-04-20T22:32:17.525Z,9.59
2023-04-20T22:34:48.050Z,9.64
2023-04-20T22:37:18.100Z,9.62
2023-04-20T22:39:48.132Z,9.69
2023-04-20T22:42:18.224Z,9.72
2023-04-20T22:44:48.765Z,9.74
2023-04-20T22:47:19.181Z,9.80
2023-04-20T22:49:49.591Z,9.82
2023-04-20T22:52:20.188Z,9.84
2023-04-20T22:54:50.765Z,9.74
2023-04-20T22:57:21.384Z,9.60
2023-04-20T22:59:52.039Z,9.73
2023-04-20T23:02:22.437Z,9.56
2023-04-20T23:04:52.450Z,9.56
2023-04-20T23:07:22.522Z,9.59
2023-04-20T23:09:53.358Z,9.45
2023-04-20T23:12:23.405Z,9.42
2023-04-20T23:14:53.748Z,9.44
2023-04-20T23:17:24.661Z,9.41
2023-04-20T23:19:54.859Z,8.95
2023-04-20T23:22:25.022Z,9.10
2023-04-20T23:24:55.234Z,9.12
2023-04-20T23:27:25.658Z,9.16
2023-04-20T23:29:55.778Z,9.08
2023-04-20T23:32:26.598Z,9.11
2023-04-20T23:34:57.208Z,9.07
2023-04-20T23:37:27.432Z,9.03
2023-04-20T23:39:57.780Z,9.16
2023-04-20T23:42:28.768Z,9.16
2023-04-20T23:44:58.914Z,9.29
2023-04-20T23:47:29.704Z,9.40
2023-04-20T23:50:00.570Z,9.21
2023-04-20T23:52:30.657Z,9.30
2023-04-20T23:55:01.423Z,9.16
2023-04-20T23:57:32.276Z,9.32
